createdAt,value
2022-08-01T00:00:12.889Z,1018.2
2022-08-01T00:05:32.532Z,1018.2
2022-08-01T00:11:17.236Z,1018.2
2022-08-01T00:16:38.574Z,1018.1
2022-08-01T00:22:33.256Z,1017.7
2022-08-01T00:27:52.685Z,1017.7
2022-08-01T00:33:28.013Z,1017.8
2022-08-01T00:39:09.656Z,1018.5
2022-08-01T00:44:38.217Z,1018.4
2022-08-01T00:50:27.125Z,1018.3
2022-08-01T00:55:47.352Z,1018.4
2022-08-01T01:01:19.070Z,1018.4
2022-08-01T01:07:14.778Z,1018.7
2022-08-01T01:12:30.685Z,1018.5
2022-08-01T01:18:08.858Z,1018.5
2022-08-01T01:23:57.681Z,1018.3
2022-08-01T01:29:17.167Z,1018.2
2022-08-01T01:34:53.198Z,1018.2
2022-08-01T01:40:37.426Z,1018.5
2022-08-01T01:46:06.594Z,1019
2022-08-01T01:51:38.998Z,1019.2
2022-08-01T01:57:17.148Z,1019.4
2022-08-01T02:02:49.381Z,1019.3
2022-08-01T02:08:46.888Z,1019.3
2022-08-01T02:14:08.847Z,1019.4
2022-08-01T02:19:41.496Z,1019.5
2022-08-01T02:25:20.245Z,1019.6
2022-08-01T02:30:56.854Z,1019.5
2022-08-01T02:36:42.354Z,1019.5
2022-08-01T02:42:12.893Z,1019.7
2022-08-01T02:47:46.843Z,1019.6
2022-08-01T02:53:39.151Z,1019.7
2022-08-01T02:58:54.139Z,1019.6
2022-08-01T03:04:20.924Z,1019.6
2022-08-01T03:10:03.919Z,1019.5
2022-08-01T03:15:37.512Z,1019.7
2022-08-01T03:21:19.154Z,1019.7
2022-08-01T03:26:52.810Z,1019.8
2022-08-01T03:32:33.357Z,1019.8
2022-08-01T03:38:16.744Z,1019.8
2022-08-01T03:43:36.776Z,1019.8
2022-08-01T03:49:18.724Z,1019.7
2022-08-01T03:54:36.057Z,1019.8
2022-08-01T04:00:28.648Z,1019.7
2022-08-01T04:06:00.848Z,1019.7
2022-08-01T04:11:31.520Z,1019.7
2022-08-01T04:17:11.627Z,1019.7
2022-08-01T04:22:46.648Z,1019.8
2022-08-01T04:28:25.918Z,1019.8
2022-08-01T04:33:39.978Z,1019.9
2022-08-01T04:39:31.268Z,1020
2022-08-01T04:44:58.891Z,1020.1
2022-08-01T04:50:22.319Z,1020.1
2022-08-01T04:55:55.271Z,1019.9
2022-08-01T05:01:49.198Z,1019.8
2022-08-01T05:07:33.067Z,1019.7
2022-08-01T05:13:01.295Z,1019.7
2022-08-01T05:18:16.995Z,1019.8
2022-08-01T05:23:55.005Z,1019.9
2022-08-01T05:29:44.672Z,1019.8
2022-08-01T05:35:25.197Z,1019.3
2022-08-01T05:40:45.636Z,1019.3
2022-08-01T05:46:28.201Z,1019.3
2022-08-01T05:51:48.743Z,1019.4
2022-08-01T05:57:39.259Z,1019.4
2022-08-01T06:03:09.323Z,1019.2
2022-08-01T06:08:37.466Z,1018.8
2022-08-01T06:14:28.615Z,1018.6
2022-08-01T06:19:51.339Z,1018.6
2022-08-01T06:25:26.906Z,1018.9
2022-08-01T06:31:25.343Z,1018.9
2022-08-01T06:36:36.527Z,1019.1
2022-08-01T06:42:16.347Z,1019.1
2022-08-01T06:47:56.127Z,1019.1
2022-08-01T06:53:44.001Z,1018.9
2022-08-01T06:58:58.568Z,1018.7
2022-08-01T07:04:44.710Z,1018.6
2022-08-01T07:10:11.354Z,1018.6
2022-08-01T07:15:52.563Z,1018.6
2022-08-01T07:21:49.339Z,1018.5
2022-08-01T07:27:21.301Z,1018
2022-08-01T07:32:44.300Z,1018.4
2022-08-01T07:38:31.926Z,1018.4
2022-08-01T07:44:07.481Z,1018.3
2022-08-01T07:49:55.878Z,1018.2
2022-08-01T07:55:33.007Z,1017.7
2022-08-01T08:01:06.957Z,1017.8
2022-08-01T08:06:51.003Z,1017.9
2022-08-01T08:12:19.158Z,1017.8
2022-08-01T08:18:05.775Z,1017.6
2022-08-01T08:23:41.706Z,1017.7
2022-08-01T08:29:11.889Z,1017.5
2022-08-01T08:35:01.920Z,1017.6
2022-08-01T08:40:23.215Z,1017.6
2022-08-01T08:46:15.015Z,1017.4
2022-08-01T08:51:42.863Z,1017.3
2022-08-01T08:57:21.245Z,1017.4
2022-08-01T09:02:59.419Z,1017.2
2022-08-01T09:08:45.834Z,1017.1
2022-08-01T09:14:17.443Z,1017.3
2022-08-01T09:19:52.045Z,1017.1
2022-08-01T09:25:36.832Z,1017.1
2022-08-01T09:31:38.097Z,1017.1
2022-08-01T09:36:50.452Z,1017
2022-08-01T09:42:40.150Z,1016.8
2022-08-01T09:48:18.581Z,1016.7
2022-08-01T09:53:51.628Z,1016.7
2022-08-01T09:59:57.607Z,1016.6
2022-08-01T10:05:18.674Z,1016.4
2022-08-01T10:10:46.353Z,1016.3
2022-08-01T10:16:43.012Z,1016.3
2022-08-01T10:22:10.550Z,1016.2
2022-08-01T10:27:55.826Z,1016.2
2022-08-01T10:33:52.143Z,1015.9
2022-08-01T10:39:04.522Z,1015.8
2022-08-01T10:45:00.600Z,1015.8
2022-08-01T10:50:34.959Z,1016
2022-08-01T10:56:30.254Z,1015.6
2022-08-01T11:02:10.951Z,1015.7
2022-08-01T11:07:35.886Z,1015.6
2022-08-01T11:13:05.912Z,1015.5
2022-08-01T11:18:45.949Z,1015.4
2022-08-01T11:24:38.504Z,1015.5
2022-08-01T11:30:32.174Z,1015.2
2022-08-01T11:35:55.214Z,1015.1
2022-08-01T11:41:40.121Z,1015.1
2022-08-01T11:47:18.064Z,1015
2022-08-01T11:53:00.014Z,1015
2022-08-01T11:58:54.913Z,1015.1
2022-08-01T12:04:19.805Z,1015
2022-08-01T12:10:17.330Z,1014.7
2022-08-01T12:15:56.895Z,1014.8
2022-08-01T12:21:36.129Z,1014.7
2022-08-01T12:27:13.959Z,1014.8
2022-08-01T12:32:43.663Z,1014.8
2022-08-01T12:38:17.122Z,1014.8
2022-08-01T12:44:01.620Z,1014.5
2022-08-01T12:49:54.532Z,1014.7
2022-08-01T12:55:33.894Z,1014.6
2022-08-01T13:01:13.954Z,1014.7
2022-08-01T13:06:47.398Z,1014.7
2022-08-01T13:12:29.326Z,1014.8
2022-08-01T13:18:02.976Z,1014.7
2022-08-01T13:24:01.348Z,1014.7
2022-08-01T13:29:33.023Z,1014.8
2022-08-01T13:34:55.961Z,1014.8
2022-08-01T13:40:34.411Z,1014.6
2022-08-01T13:46:32.011Z,1014.5
2022-08-01T13:52:04.546Z,1014.7
2022-08-01T13:57:37.614Z,1014.7
2022-08-01T14:03:20.043Z,1014.6
2022-08-01T14:09:17.257Z,1014.4
2022-08-01T14:14:31.975Z,1014.3
2022-08-01T14:20:24.957Z,1014.3
2022-08-01T14:26:09.910Z,1014.2
2022-08-01T14:31:38.316Z,1014.3
2022-08-01T14:37:27.908Z,1014.4
2022-08-01T14:43:05.807Z,1014.4
2022-08-01T14:48:25.822Z,1014.2
2022-08-01T14:54:09.445Z,1014.4
2022-08-01T14:59:53.446Z,1014.3
2022-08-01T15:05:32.682Z,1014.3
2022-08-01T15:11:26.684Z,1014.3
2022-08-01T15:17:03.631Z,1014.4
2022-08-01T15:22:30.557Z,1014.4
2022-08-01T15:28:15.563Z,1014.4
2022-08-01T15:33:38.506Z,1014.5
2022-08-01T15:39:29.259Z,1014.6
2022-08-01T15:45:08.708Z,1014.5
2022-08-01T15:50:43.401Z,1014.5
2022-08-01T15:56:14.821Z,1014.6
2022-08-01T16:01:55.162Z,1014.6
2022-08-01T16:07:59.167Z,1014.6
2022-08-01T16:13:24.413Z,1014.7
2022-08-01T16:19:12.250Z,1014.6
2022-08-01T16:24:34.960Z,1014.8
2022-08-01T16:30:01.739Z,1014.7
2022-08-01T16:35:51.913Z,1014.7
2022-08-01T16:41:30.303Z,1014.6
2022-08-01T16:47:05.856Z,1014.7
2022-08-01T16:52:34.078Z,1014.6
2022-08-01T16:58:33.838Z,1014.6
2022-08-01T17:04:02.200Z,1014.8
2022-08-01T17:09:43.260Z,1014.7
2022-08-01T17:15:14.909Z,1014.7
2022-08-01T17:20:52.810Z,1014.7
2022-08-01T17:26:35.314Z,1014.7
2022-08-01T17:32:20.030Z,1014.8
2022-08-01T17:38:02.952Z,1014.9
2022-08-01T17:43:21.783Z,1014.9
2022-08-01T17:48:51.326Z,1015
2022-08-01T17:54:37.416Z,1015
2022-08-01T18:00:23.465Z,1015
2022-08-01T18:05:43.916Z,1015.1
2022-08-01T18:11:37.107Z,1015.2
2022-08-01T18:17:11.210Z,1015.2
2022-08-01T18:22:55.082Z,1015
2022-08-01T18:28:25.792Z,1015.1
2022-08-01T18:34:13.690Z,1015.4
2022-08-01T18:39:49.618Z,1015.6
2022-08-01T18:50:47.473Z,1015.6
2022-08-01T18:56:22.389Z,1015.7
2022-08-01T19:02:22.196Z,1015.5
2022-08-01T19:08:04.721Z,1015.8
2022-08-01T19:13:38.730Z,1015.9
2022-08-01T19:19:00.449Z,1016
2022-08-01T19:30:29.218Z,1016.2
2022-08-01T19:35:56.935Z,1016.5
2022-08-01T19:41:43.597Z,1016.7
2022-08-01T19:47:20.767Z,1016.7
2022-08-01T19:52:40.107Z,1016.9
2022-08-01T19:58:40.123Z,1016.9
2022-08-01T20:04:11.262Z,1016.9
2022-08-01T20:09:35.291Z,1017.1
2022-08-01T20:15:27.670Z,1017.1
2022-08-01T20:20:55.397Z,1017.2
2022-08-01T20:26:20.549Z,1017.2
2022-08-01T20:31:57.333Z,1017.2
2022-08-01T20:37:49.772Z,1017.3
2022-08-01T20:43:04.499Z,1017.3
2022-08-01T20:48:57.167Z,1017.3
2022-08-01T20:54:43.013Z,1017.6
2022-08-01T21:00:06.575Z,1017.6
2022-08-01T21:05:30.146Z,1017.5
2022-08-01T21:11:12.427Z,1017.7
2022-08-01T21:16:56.888Z,1017.6
2022-08-01T21:22:33.219Z,1017.5
2022-08-01T21:28:00.373Z,1017.6
2022-08-01T21:33:54.430Z,1017.6
2022-08-01T21:39:10.697Z,1017.6
2022-08-01T21:45:11.844Z,1017.5
2022-08-01T21:50:41.990Z,1017.5
2022-08-01T21:56:14.469Z,1017.5
2022-08-01T22:01:51.464Z,1017.6
2022-08-01T22:07:18.051Z,1017.8
2022-08-01T22:13:11.388Z,1017.8
2022-08-01T22:18:26.480Z,1017.8
2022-08-01T22:24:17.249Z,1017.8
2022-08-01T22:29:43.637Z,1017.8
2022-08-01T22:35:35.577Z,1018
2022-08-01T22:40:58.239Z,1018
2022-08-01T22:46:47.257Z,1018.1
2022-08-01T22:52:10.999Z,1018.2
2022-08-01T22:57:53.991Z,1018.3
2022-08-01T23:03:31.602Z,1018.4
2022-08-01T23:09:09.370Z,1018.5
2022-08-01T23:14:34.615Z,1018.5
2022-08-01T23:20:18.473Z,1018.5
2022-08-01T23:25:48.122Z,1018.6
2022-08-01T23:31:50.978Z,1018.6
2022-08-01T23:36:56.546Z,1018.7
2022-08-01T23:42:29.774Z,1019.1
2022-08-01T23:48:17.259Z,1019
2022-08-01T23:53:51.369Z,1018.8
2022-08-01T23:59:53.716Z,1018.9
